Time;durP1;ratioP1;P1;durP2;ratioP2;P2;SDS_P1;SDS_P2;PMS_P1;PMS_P2;Temp;Humidity;BMP_temperature;BMP_pressure;BME280_temperature;BME280_humidity;BME280_pressure;Samples;Min_cycle;Max_cycle;Signal;HPM_P1;HPM_P2
2023/03/01 00:02:02;;;;;;;13.43;7.28;;;0.10;99.90;;;;;;6250512;22;20055;-76
2023/03/01 00:04:28;;;;;;;12.23;6.88;;;0.10;99.90;;;;;;6277837;22;20073;-76
2023/03/01 00:06:54;;;;;;;12.10;7.65;;;0.00;99.90;;;;;;6277714;22;20014;-76
2023/03/01 00:09:19;;;;;;;11.98;6.72;;;0.10;99.90;;;;;;6277450;22;20498;-76
2023/03/01 00:11:46;;;;;;;15.93;8.88;;;0.00;99.90;;;;;;6250492;22;20047;-76
2023/03/01 00:14:12;;;;;;;13.82;7.22;;;0.00;99.90;;;;;;6277791;22;20015;-76
2023/03/01 00:16:40;;;;;;;13.27;8.13;;;0.00;99.90;;;;;;6277755;22;20461;-76
2023/03/01 00:19:09;;;;;;;12.30;7.82;;;0.00;99.90;;;;;;6250183;22;20108;-76
2023/03/01 00:21:35;;;;;;;16.63;8.25;;;0.00;99.90;;;;;;6250199;22;20027;-76
2023/03/01 00:24:01;;;;;;;17.55;8.20;;;0.00;99.90;;;;;;6277370;22;20470;-76
2023/03/01 00:26:27;;;;;;;13.30;7.75;;;0.00;99.90;;;;;;6249982;22;20042;-76
2023/03/01 00:28:55;;;;;;;14.55;7.88;;;0.00;99.90;;;;;;6250203;22;20439;-76
2023/03/01 00:31:27;;;;;;;15.02;7.82;;;-0.10;99.90;;;;;;6277616;22;20330;-76
2023/03/01 00:33:57;;;;;;;15.27;8.43;;;-0.10;99.90;;;;;;6277496;22;20455;-76
2023/03/01 00:36:25;;;;;;;19.65;9.68;;;0.00;99.90;;;;;;6277565;22;20030;-76
2023/03/01 00:38:51;;;;;;;18.25;9.95;;;-0.10;99.90;;;;;;6249714;22;20020;-76
2023/03/01 00:41:22;;;;;;;24.45;11.88;;;-0.20;99.90;;;;;;6249707;22;20026;-76
2023/03/01 00:43:49;;;;;;;40.58;14.38;;;-0.20;99.90;;;;;;6277456;22;20008;-76
2023/03/01 00:46:17;;;;;;;31.33;11.65;;;-0.20;99.90;;;;;;6277384;22;20027;-76
2023/03/01 00:48:43;;;;;;;22.50;11.20;;;-0.20;99.90;;;;;;6277423;22;20023;-76
2023/03/01 00:51:18;;;;;;;22.38;11.80;;;-0.20;99.90;;;;;;6277092;22;20020;-76
2023/03/01 00:53:44;;;;;;;25.02;12.55;;;-0.30;99.90;;;;;;6249932;22;20047;-76
2023/03/01 00:56:11;;;;;;;22.00;11.55;;;-0.20;99.90;;;;;;6276760;22;20018;-76
2023/03/01 00:58:38;;;;;;;19.55;9.73;;;-0.30;99.90;;;;;;6249983;22;20027;-76
2023/03/01 01:01:16;;;;;;;32.55;9.05;;;-0.20;99.90;;;;;;6277268;22;20018;-76
2023/03/01 01:03:47;;;;;;;32.30;12.38;;;-0.30;99.90;;;;;;6277066;22;20466;-76
2023/03/01 01:06:18;;;;;;;136.63;17.20;;;-0.30;99.90;;;;;;6249824;22;20351;-76
2023/03/01 01:08:43;;;;;;;23.52;10.10;;;-0.30;99.90;;;;;;6249956;22;20027;-76
2023/03/01 01:11:12;;;;;;;21.65;10.63;;;-0.40;99.90;;;;;;6277259;22;20004;-76
2023/03/01 01:13:39;;;;;;;19.42;9.82;;;-0.40;99.90;;;;;;6277212;22;20012;-76
2023/03/01 01:16:06;;;;;;;17.77;8.75;;;-0.40;99.90;;;;;;6276932;22;20012;-76
2023/03/01 01:18:31;;;;;;;20.65;9.00;;;-0.50;99.90;;;;;;6277188;22;20027;-76
2023/03/01 01:20:57;;;;;;;17.67;9.40;;;-0.40;99.90;;;;;;6249761;22;20007;-76
2023/03/01 01:23:23;;;;;;;17.48;9.40;;;-0.50;99.90;;;;;;6277186;22;20012;-76
2023/03/01 01:25:48;;;;;;;20.45;10.43;;;-0.40;99.90;;;;;;6249733;22;20339;-76
2023/03/01 01:28:14;;;;;;;16.25;8.57;;;-0.60;99.90;;;;;;6249684;22;20016;-76
2023/03/01 01:30:40;;;;;;;14.45;7.47;;;-0.60;99.90;;;;;;6277134;22;20024;-76
2023/03/01 01:33:05;;;;;;;12.13;7.18;;;-0.50;99.90;;;;;;6249761;22;20016;-76
2023/03/01 01:35:31;;;;;;;13.70;6.78;;;-0.60;99.90;;;;;;6277134;22;20027;-76
2023/03/01 01:37:56;;;;;;;19.83;9.40;;;-0.40;99.90;;;;;;6249774;22;20020;-76
2023/03/01 01:40:22;;;;;;;18.02;7.72;;;-0.40;99.90;;;;;;6277079;22;20340;-76
2023/03/01 01:42:48;;;;;;;146.68;16.90;;;-0.50;99.90;;;;;;6276924;22;20316;-76
2023/03/01 01:45:30;;;;;;;29.77;9.35;;;-0.40;99.90;;;;;;6277057;22;20020;-76
2023/03/01 01:48:02;;;;;;;35.33;9.02;;;-0.30;99.90;;;;;;6277123;22;20439;-76
2023/03/01 01:50:37;;;;;;;37.28;11.57;;;-0.30;99.90;;;;;;6276924;22;20047;-76
2023/03/01 01:53:08;;;;;;;22.73;8.95;;;-0.20;99.90;;;;;;6249616;22;20016;-76
2023/03/01 01:55:37;;;;;;;27.52;9.07;;;-0.20;99.90;;;;;;6249512;22;20012;-76
2023/03/01 01:58:06;;;;;;;16.52;8.77;;;-0.20;99.90;;;;;;6249641;22;20070;-76
2023/03/01 02:00:32;;;;;;;16.15;8.63;;;-0.20;99.90;;;;;;6249619;22;20074;-76
2023/03/01 02:03:01;;;;;;;13.98;7.85;;;-0.20;99.90;;;;;;6249713;22;20443;-76
2023/03/01 02:05:39;;;;;;;16.50;8.60;;;-0.10;99.90;;;;;;6276915;22;20098;-76
2023/03/01 02:08:06;;;;;;;17.02;9.57;;;-0.20;99.90;;;;;;6278913;22;20018;-76
2023/03/01 02:10:34;;;;;;;19.70;9.10;;;-0.10;99.90;;;;;;6278729;22;20109;-76
2023/03/01 02:13:00;;;;;;;19.30;9.82;;;-0.20;99.90;;;;;;6251570;22;20119;-76
2023/03/01 02:15:26;;;;;;;14.40;8.15;;;-0.20;99.90;;;;;;6251142;22;20506;-76
2023/03/01 02:17:53;;;;;;;16.38;9.02;;;-0.20;99.90;;;;;;6278723;22;20058;-76
2023/03/01 02:21:10;;;;;;;22.70;10.00;;;-0.30;99.90;;;;;;6278853;22;20035;-76
2023/03/01 02:23:36;;;;;;;21.77;11.05;;;-0.20;99.90;;;;;;6227482;22;20027;-76
2023/03/01 02:26:18;;;;;;;21.13;10.43;;;-0.20;99.90;;;;;;6251258;22;20381;-76
2023/03/01 02:28:44;;;;;;;20.77;10.98;;;-0.30;99.90;;;;;;6251417;22;20019;-76
2023/03/01 02:34:04;;;;;;;72.65;13.80;;;-0.40;99.90;;;;;;6251260;22;20398;-76
2023/03/01 02:36:36;;;;;;;30.73;11.63;;;-0.40;99.90;;;;;;6251317;22;20466;-76
2023/03/01 02:39:06;;;;;;;15.77;8.02;;;-0.40;99.90;;;;;;6251141;22;20020;-76
2023/03/01 02:41:37;;;;;;;21.25;11.40;;;-0.40;99.90;;;;;;6278366;22;20478;-76
2023/03/01 02:44:04;;;;;;;35.45;11.43;;;-0.40;99.90;;;;;;6278371;22;20008;-76
2023/03/01 02:46:30;;;;;;;38.28;12.50;;;-0.40;99.90;;;;;;6278541;22;20020;-76
2023/03/01 02:48:58;;;;;;;22.98;10.77;;;-0.60;99.90;;;;;;6251270;22;20065;-76
2023/03/01 02:51:45;;;;;;;18.35;9.70;;;-0.50;99.90;;;;;;6278637;22;20062;-76
2023/03/01 02:54:23;;;;;;;28.80;10.85;;;-0.60;99.90;;;;;;6251208;22;20012;-76
2023/03/01 02:56:49;;;;;;;15.55;8.52;;;-0.60;99.90;;;;;;6278105;22;20386;-76
2023/03/01 02:59:17;;;;;;;22.27;8.07;;;-0.60;99.90;;;;;;6278506;22;20091;-76
2023/03/01 03:01:43;;;;;;;15.65;8.18;;;-0.60;99.90;;;;;;6250953;22;20016;-76
2023/03/01 03:04:16;;;;;;;13.25;7.75;;;-0.50;99.90;;;;;;6251027;22;20043;-76
2023/03/01 03:06:43;;;;;;;15.60;7.93;;;-0.60;99.90;;;;;;6250876;22;20023;-77
2023/03/01 03:09:08;;;;;;;14.32;8.50;;;-0.60;99.90;;;;;;6251054;22;20051;-76
2023/03/01 03:11:34;;;;;;;15.23;9.00;;;-0.60;99.90;;;;;;6251011;22;20012;-76
2023/03/01 03:13:59;;;;;;;16.13;9.57;;;-0.60;99.90;;;;;;6250987;22;20050;-77
2023/03/01 03:16:25;;;;;;;20.02;9.98;;;-0.70;99.90;;;;;;6250955;22;20011;-76
2023/03/01 03:18:51;;;;;;;58.50;11.98;;;-0.70;99.90;;;;;;6250544;22;20015;-76
2023/03/01 03:21:17;;;;;;;43.03;10.52;;;-0.70;99.90;;;;;;6277963;22;20026;-76
2023/03/01 03:23:43;;;;;;;42.38;9.60;;;-0.70;99.90;;;;;;6250731;22;20446;-76
2023/03/01 03:26:13;;;;;;;40.20;9.63;;;-0.80;99.90;;;;;;6250738;22;20103;-76
2023/03/01 03:28:39;;;;;;;54.03;11.05;;;-0.70;99.90;;;;;;6277793;22;20402;-76
2023/03/01 03:31:07;;;;;;;29.60;10.25;;;-0.70;99.90;;;;;;6250844;22;20034;-76
2023/03/01 03:33:33;;;;;;;18.70;8.02;;;-0.80;99.90;;;;;;6250902;22;20438;-76
2023/03/01 03:35:58;;;;;;;25.40;8.65;;;-0.70;99.90;;;;;;6278196;22;20018;-76
2023/03/01 03:38:24;;;;;;;59.35;12.52;;;-0.60;99.90;;;;;;6250536;22;20047;-76
2023/03/01 03:41:08;;;;;;;19.33;8.82;;;-0.80;99.90;;;;;;6278189;22;20024;-77
2023/03/01 03:43:36;;;;;;;16.15;9.07;;;-0.70;99.90;;;;;;6250795;22;20022;-76
2023/03/01 03:46:05;;;;;;;32.90;11.15;;;-0.90;99.90;;;;;;6277981;22;20012;-77
2023/03/01 03:48:35;;;;;;;21.48;9.32;;;-0.90;99.90;;;;;;6277988;22;20016;-77
2023/03/01 03:51:01;;;;;;;18.35;9.63;;;-0.80;99.90;;;;;;6250590;22;20434;-76
2023/03/01 03:53:28;;;;;;;21.42;9.05;;;-0.80;99.90;;;;;;6250610;22;20051;-77
2023/03/01 03:55:54;;;;;;;19.40;9.57;;;-0.90;99.90;;;;;;6250488;22;20019;-76
2023/03/01 03:58:23;;;;;;;62.95;10.50;;;-0.70;99.90;;;;;;6250529;22;20015;-76
2023/03/01 04:00:51;;;;;;;14.35;8.45;;;-0.80;99.90;;;;;;6277691;22;20022;-76
2023/03/01 04:03:18;;;;;;;17.20;9.57;;;-0.80;99.90;;;;;;6250443;22;20020;-76
2023/03/01 04:05:44;;;;;;;15.68;8.52;;;-0.80;99.90;;;;;;6250352;22;20015;-77
2023/03/01 04:08:10;;;;;;;15.10;8.77;;;-0.60;99.90;;;;;;6250438;22;20035;-76
2023/03/01 04:10:39;;;;;;;15.77;9.00;;;-0.60;99.90;;;;;;6250467;22;20015;-76
2023/03/01 04:13:06;;;;;;;16.42;8.85;;;-0.70;99.90;;;;;;6277487;22;20469;-76
2023/03/01 04:15:32;;;;;;;17.40;8.90;;;-0.60;99.90;;;;;;6250354;22;20022;-76
2023/03/01 04:17:59;;;;;;;18.65;10.20;;;-0.50;99.90;;;;;;6250381;22;20016;-76
2023/03/01 04:20:28;;;;;;;17.98;9.82;;;-0.70;99.90;;;;;;6250361;22;20016;-76
2023/03/01 04:23:10;;;;;;;17.15;8.80;;;-0.60;99.90;;;;;;6250202;22;20380;-76
2023/03/01 04:25:53;;;;;;;22.53;10.67;;;-0.60;99.90;;;;;;6250387;22;20023;-76
2023/03/01 04:28:40;;;;;;;20.02;10.05;;;-0.60;99.90;;;;;;6277766;22;20015;-77
2023/03/01 04:31:17;;;;;;;18.10;9.52;;;-0.50;99.90;;;;;;6277254;22;20023;-76
2023/03/01 04:33:51;;;;;;;18.73;10.27;;;-0.50;99.90;;;;;;6250268;22;20053;-76
2023/03/01 04:36:18;;;;;;;19.38;9.73;;;-0.60;99.90;;;;;;6250351;22;20024;-76
2023/03/01 04:38:48;;;;;;;17.40;9.40;;;-0.60;99.90;;;;;;6277222;22;20012;-76
2023/03/01 04:41:16;;;;;;;16.13;8.77;;;-0.60;99.90;;;;;;6250198;22;20055;-76
2023/03/01 04:43:41;;;;;;;18.00;9.60;;;-0.50;99.90;;;;;;6277173;22;20011;-76
2023/03/01 04:46:10;;;;;;;19.55;9.73;;;-0.60;99.90;;;;;;6249937;22;20012;-76
2023/03/01 04:48:38;;;;;;;16.17;9.52;;;-0.50;99.90;;;;;;6250113;22;20081;-76
2023/03/01 04:51:04;;;;;;;15.45;9.40;;;-0.60;99.90;;;;;;6250102;22;20076;-76
2023/03/01 04:53:30;;;;;;;16.92;9.07;;;-0.50;99.90;;;;;;6277082;22;20019;-76
2023/03/01 04:55:56;;;;;;;15.73;8.50;;;-0.50;99.90;;;;;;6249987;22;20020;-76
2023/03/01 04:58:26;;;;;;;17.15;8.90;;;-0.40;99.90;;;;;;6277064;22;20023;-76
2023/03/01 05:00:53;;;;;;;15.50;8.18;;;-0.40;99.90;;;;;;6277418;22;20011;-76
2023/03/01 05:03:20;;;;;;;19.80;9.45;;;-0.50;99.90;;;;;;6250051;22;20081;-76
2023/03/01 05:05:48;;;;;;;16.08;9.13;;;-0.40;99.90;;;;;;6249865;22;20008;-76
2023/03/01 05:08:17;;;;;;;20.33;10.07;;;-0.30;99.90;;;;;;6249903;22;20050;-76
2023/03/01 05:10:54;;;;;;;18.30;10.13;;;-0.30;99.90;;;;;;6249642;22;20091;-76
2023/03/01 05:13:21;;;;;;;18.67;9.60;;;-0.40;99.90;;;;;;6277071;22;20023;-76
2023/03/01 05:15:57;;;;;;;16.02;8.85;;;-0.20;99.90;;;;;;6277286;22;20046;-76
2023/03/01 05:18:28;;;;;;;19.33;10.05;;;-0.30;99.90;;;;;;6249942;22;20073;-76
2023/03/01 05:21:05;;;;;;;16.88;9.43;;;-0.30;99.90;;;;;;6276943;22;20076;-76
2023/03/01 05:23:32;;;;;;;18.30;8.68;;;-0.30;99.90;;;;;;6277010;22;20030;-76
2023/03/01 05:25:59;;;;;;;17.50;8.50;;;-0.50;99.90;;;;;;6249702;22;20066;-76
2023/03/01 05:28:25;;;;;;;15.50;9.00;;;-0.40;99.90;;;;;;6277097;22;20463;-76
2023/03/01 05:30:51;;;;;;;19.15;9.55;;;-0.50;99.90;;;;;;6276931;22;20433;-76
2023/03/01 05:33:17;;;;;;;15.85;8.50;;;-0.50;99.90;;;;;;6277186;22;20020;-76
2023/03/01 05:35:44;;;;;;;13.45;8.25;;;-0.60;99.90;;;;;;6249534;22;20069;-77
2023/03/01 05:38:15;;;;;;;18.10;9.82;;;-0.60;99.90;;;;;;6276642;22;20020;-76
2023/03/01 05:40:43;;;;;;;17.52;9.10;;;-0.70;99.90;;;;;;6249464;22;20051;-76
2023/03/01 05:43:09;;;;;;;17.45;8.77;;;-0.80;99.90;;;;;;6251745;22;20043;-76
2023/03/01 05:45:37;;;;;;;15.50;8.77;;;-0.80;99.90;;;;;;6251501;22;20073;-76
2023/03/01 05:48:04;;;;;;;18.55;9.02;;;-0.70;99.90;;;;;;6278705;22;20020;-77
2023/03/01 05:50:33;;;;;;;18.88;9.20;;;-0.90;99.90;;;;;;6278922;22;20382;-76
2023/03/01 05:53:05;;;;;;;15.90;9.40;;;-0.70;99.90;;;;;;6251500;22;20339;-76
2023/03/01 05:55:32;;;;;;;14.93;8.85;;;-0.90;99.90;;;;;;6278867;22;20482;-77
2023/03/01 05:57:59;;;;;;;21.95;9.20;;;-0.90;99.90;;;;;;6278984;22;20019;-77
2023/03/01 06:00:26;;;;;;;19.58;9.90;;;-0.90;99.90;;;;;;6251657;22;20031;-77
2023/03/01 06:02:53;;;;;;;19.88;8.70;;;-0.90;99.90;;;;;;6279096;22;20016;-77
2023/03/01 06:05:19;;;;;;;16.60;8.75;;;-0.80;99.90;;;;;;6278665;22;20436;-77
2023/03/01 06:07:45;;;;;;;17.15;9.38;;;-0.80;99.90;;;;;;6278557;22;20049;-77
2023/03/01 06:10:13;;;;;;;20.17;10.15;;;-0.90;99.90;;;;;;6278711;22;20030;-77
2023/03/01 06:12:40;;;;;;;33.92;15.35;;;-0.90;99.90;;;;;;6251504;22;20073;-77
2023/03/01 06:15:09;;;;;;;23.42;12.63;;;-1.00;99.90;;;;;;6278937;22;20084;-77
2023/03/01 06:17:39;;;;;;;17.95;9.20;;;-1.00;99.90;;;;;;6250500;22;20027;-76
2023/03/01 06:20:07;;;;;;;18.25;9.50;;;-1.00;99.90;;;;;;6251361;22;20023;-77
2023/03/01 06:22:32;;;;;;;16.75;9.63;;;-0.90;99.90;;;;;;6251352;22;20015;-76
2023/03/01 06:24:58;;;;;;;16.25;9.85;;;-1.00;99.90;;;;;;6251389;22;20022;-77
2023/03/01 06:27:24;;;;;;;17.17;8.93;;;-1.10;99.90;;;;;;6251114;22;20016;-77
2023/03/01 06:29:50;;;;;;;32.30;10.98;;;-0.90;99.90;;;;;;6278705;22;20035;-77
2023/03/01 06:32:16;;;;;;;47.55;11.93;;;-0.90;99.90;;;;;;6278382;22;20019;-77
2023/03/01 06:34:41;;;;;;;26.52;9.80;;;-0.90;99.90;;;;;;6251218;22;20019;-76
2023/03/01 06:37:07;;;;;;;29.90;11.80;;;-0.90;99.90;;;;;;6251216;22;20347;-77
2023/03/01 06:39:33;;;;;;;51.25;12.57;;;-0.80;99.90;;;;;;6251044;22;20012;-77
2023/03/01 06:41:59;;;;;;;55.05;13.48;;;-0.90;99.90;;;;;;6251226;22;20020;-76
2023/03/01 06:44:26;;;;;;;103.82;17.83;;;-0.80;99.90;;;;;;6251238;22;20011;-77
2023/03/01 06:46:52;;;;;;;26.85;9.93;;;-0.80;99.90;;;;;;6278152;22;20023;-77
2023/03/01 06:49:17;;;;;;;18.95;8.93;;;-0.90;99.90;;;;;;6250983;22;20016;-76
2023/03/01 06:51:44;;;;;;;36.53;11.25;;;-0.90;99.90;;;;;;6251152;22;20099;-76
2023/03/01 06:54:10;;;;;;;28.67;9.93;;;-0.80;99.90;;;;;;6250485;22;20011;-76
2023/03/01 06:56:36;;;;;;;16.40;8.98;;;-1.00;99.90;;;;;;6250620;22;20160;-77
2023/03/01 06:59:02;;;;;;;54.72;10.65;;;-0.90;99.90;;;;;;6250885;22;20054;-77
2023/03/01 07:01:28;;;;;;;34.88;10.23;;;-1.00;99.90;;;;;;6250914;22;20023;-77
2023/03/01 07:03:54;;;;;;;53.65;12.05;;;-0.90;99.90;;;;;;6250983;22;20020;-77
2023/03/01 07:06:20;;;;;;;22.20;9.77;;;-1.00;99.90;;;;;;6250907;22;20320;-77
2023/03/01 07:08:46;;;;;;;25.98;11.00;;;-0.90;99.90;;;;;;6250630;22;20055;-77
2023/03/01 07:11:12;;;;;;;31.05;10.68;;;-0.90;99.90;;;;;;6250861;22;20070;-77
2023/03/01 07:13:37;;;;;;;16.83;9.40;;;-1.00;99.90;;;;;;6250958;22;20073;-77
2023/03/01 07:16:03;;;;;;;23.23;10.18;;;-1.00;99.90;;;;;;6250693;22;20020;-77
2023/03/01 07:18:29;;;;;;;16.65;9.85;;;-0.80;99.90;;;;;;6250841;22;20447;-77
2023/03/01 07:20:54;;;;;;;17.42;10.05;;;-0.80;99.90;;;;;;6250901;22;20496;-77
2023/03/01 07:23:20;;;;;;;18.05;10.57;;;-0.80;99.90;;;;;;6250751;22;20123;-77
2023/03/01 07:25:54;;;;;;;27.75;14.93;;;-0.80;99.90;;;;;;6250881;22;20374;-77
2023/03/01 07:28:20;;;;;;;20.42;11.80;;;-0.70;99.90;;;;;;6250750;22;20043;-77
2023/03/01 07:30:46;;;;;;;20.02;12.07;;;-0.70;99.90;;;;;;6250729;22;20012;-77
2023/03/01 07:33:11;;;;;;;21.25;12.68;;;-0.60;99.90;;;;;;6250641;22;20059;-77
2023/03/01 07:35:37;;;;;;;21.88;13.85;;;-0.70;99.90;;;;;;6250652;22;20537;-78
2023/03/01 07:38:03;;;;;;;23.13;13.10;;;-0.70;99.90;;;;;;6250605;22;20007;-77
2023/03/01 07:40:28;;;;;;;22.88;13.80;;;-0.60;99.90;;;;;;6250745;22;20411;-77
2023/03/01 07:42:58;;;;;;;25.20;15.18;;;-0.50;99.90;;;;;;6250640;22;20042;-77
2023/03/01 07:45:25;;;;;;;26.10;16.35;;;-0.50;99.90;;;;;;6250463;22;20027;-78
2023/03/01 07:47:55;;;;;;;24.58;14.50;;;-0.20;99.90;;;;;;6250403;22;20086;-77
2023/03/01 07:50:21;;;;;;;23.85;14.27;;;-0.20;99.90;;;;;;6250376;22;20063;-77
2023/03/01 07:52:49;;;;;;;25.02;15.48;;;-0.10;99.90;;;;;;6277434;22;20051;-78
2023/03/01 07:55:16;;;;;;;27.20;16.88;;;-0.20;99.90;;;;;;6250348;22;20023;-77
2023/03/01 07:57:41;;;;;;;26.30;16.25;;;0.00;99.90;;;;;;6249166;22;20023;-77
2023/03/01 08:00:09;;;;;;;24.75;15.98;;;0.10;99.90;;;;;;6250050;22;20023;-77
2023/03/01 08:02:35;;;;;;;29.42;18.92;;;0.10;99.90;;;;;;6250047;22;20104;-77
2023/03/01 08:05:01;;;;;;;30.60;18.30;;;0.30;99.90;;;;;;6249923;22;20378;-77
2023/03/01 08:07:26;;;;;;;30.17;17.95;;;0.40;99.90;;;;;;6250014;22;20452;-77
2023/03/01 08:09:52;;;;;;;28.05;17.67;;;0.60;99.90;;;;;;6249958;22;20016;-77
2023/03/01 08:12:17;;;;;;;31.08;17.75;;;0.80;99.90;;;;;;6249993;22;20094;-77
2023/03/01 08:14:43;;;;;;;32.35;17.92;;;0.80;99.90;;;;;;6277186;22;20015;-77
2023/03/01 08:17:09;;;;;;;33.53;17.27;;;1.00;99.90;;;;;;6277230;22;20015;-79
2023/03/01 08:19:34;;;;;;;30.83;17.83;;;1.20;99.90;;;;;;6249714;22;20011;-78
2023/03/01 08:22:03;;;;;;;30.23;16.77;;;1.30;99.90;;;;;;6249925;22;20423;-78
2023/03/01 08:24:29;;;;;;;32.33;17.48;;;1.50;99.90;;;;;;6277122;22;20011;-82
2023/03/01 08:26:56;;;;;;;33.55;17.08;;;1.50;99.90;;;;;;6249802;22;20026;-81
2023/03/01 08:29:22;;;;;;;32.60;17.42;;;1.70;99.90;;;;;;6249457;22;20028;-80
2023/03/01 08:31:48;;;;;;;33.25;18.40;;;1.80;99.90;;;;;;6249691;22;20015;-81
2023/03/01 08:34:17;;;;;;;31.90;17.45;;;1.90;99.90;;;;;;6276675;22;20455;-78
2023/03/01 08:36:45;;;;;;;34.78;17.83;;;2.10;99.90;;;;;;6249756;22;20134;-78
2023/03/01 08:39:13;;;;;;;32.67;17.70;;;2.30;99.90;;;;;;6276579;22;20020;-78
2023/03/01 08:41:40;;;;;;;34.22;18.45;;;2.40;99.90;;;;;;6249455;22;20074;-78
2023/03/01 08:44:06;;;;;;;30.23;17.70;;;2.60;99.90;;;;;;6277031;22;20020;-78
2023/03/01 08:46:37;;;;;;;27.05;16.23;;;2.60;99.90;;;;;;6249507;22;20016;-83
2023/03/01 08:49:29;;;;;;;28.67;16.45;;;2.80;99.90;;;;;;6249597;22;20026;-80
2023/03/01 08:51:54;;;;;;;27.85;16.25;;;2.80;99.90;;;;;;6243902;22;20339;-81
2023/03/01 08:54:21;;;;;;;27.08;15.75;;;2.80;99.90;;;;;;6249287;22;20020;-84
2023/03/01 08:56:47;;;;;;;28.50;17.00;;;2.90;99.90;;;;;;6249420;22;20016;-81
2023/03/01 08:59:15;;;;;;;27.25;16.77;;;3.10;99.90;;;;;;6276604;22;20030;-81
2023/03/01 09:01:44;;;;;;;25.50;15.85;;;3.20;99.90;;;;;;6249396;22;20008;-81
2023/03/01 09:04:11;;;;;;;25.77;16.02;;;3.30;99.90;;;;;;6276316;22;20463;-78
2023/03/01 09:06:37;;;;;;;23.58;14.57;;;3.50;99.90;;;;;;6276437;22;20024;-78
2023/03/01 09:09:04;;;;;;;23.73;15.52;;;3.60;99.90;;;;;;6249471;22;20020;-79
2023/03/01 09:11:30;;;;;;;21.77;14.63;;;3.80;99.90;;;;;;6249552;22;20043;-79
2023/03/01 09:13:56;;;;;;;26.75;15.25;;;3.90;99.90;;;;;;6249394;22;20077;-79
2023/03/01 09:16:23;;;;;;;24.55;16.67;;;4.10;99.90;;;;;;6249103;22;20015;-79
2023/03/01 09:18:51;;;;;;;28.73;17.63;;;4.20;99.90;;;;;;6248794;22;20019;-79
2023/03/01 09:21:18;;;;;;;27.73;16.55;;;4.30;99.90;;;;;;6249180;22;20324;-79
2023/03/01 09:23:45;;;;;;;23.65;14.80;;;4.50;99.90;;;;;;6249564;22;20020;-79
2023/03/01 09:26:16;;;;;;;22.70;15.05;;;4.60;99.90;;;;;;6249189;22;20328;-79
2023/03/01 09:28:42;;;;;;;24.27;15.65;;;4.70;99.90;;;;;;6249382;22;20020;-78
2023/03/01 09:31:08;;;;;;;25.83;15.82;;;4.80;99.90;;;;;;6249192;22;20012;-78
2023/03/01 09:33:34;;;;;;;24.42;15.48;;;4.80;99.90;;;;;;6248872;22;20091;-78
2023/03/01 09:36:05;;;;;;;28.50;16.70;;;4.90;99.90;;;;;;6249325;22;20012;-78
2023/03/01 09:38:31;;;;;;;24.92;15.02;;;5.10;99.90;;;;;;6276451;22;20090;-78
2023/03/01 09:40:57;;;;;;;22.05;14.07;;;5.20;99.90;;;;;;6276676;22;20011;-78
2023/03/01 09:43:46;;;;;;;24.67;15.32;;;5.20;99.90;;;;;;6276421;22;20443;-79
2023/03/01 09:46:16;;;;;;;24.40;15.18;;;5.30;99.90;;;;;;6249098;22;20023;-78
2023/03/01 09:48:55;;;;;;;22.25;14.00;;;5.40;99.90;;;;;;6249306;22;20119;-78
2023/03/01 09:51:29;;;;;;;21.27;13.90;;;5.60;99.90;;;;;;6274159;22;20020;-76
2023/03/01 09:53:56;;;;;;;24.13;14.68;;;5.80;99.90;;;;;;6249000;22;20206;-78
2023/03/01 09:56:33;;;;;;;20.70;13.73;;;5.80;99.90;;;;;;6276218;22;20127;-78
2023/03/01 09:59:14;;;;;;;20.50;13.10;;;5.90;99.90;;;;;;6276550;22;20012;-78
2023/03/01 10:02:17;;;;;;;24.95;14.40;;;6.00;99.90;;;;;;6276421;22;20052;-81
2023/03/01 10:04:51;;;;;;;23.30;13.95;;;6.20;99.90;;;;;;6276785;22;20047;-81
2023/03/01 10:07:36;;;;;;;23.63;14.30;;;6.30;99.90;;;;;;6275963;22;20332;-79
2023/03/01 10:10:07;;;;;;;23.20;14.23;;;6.30;99.90;;;;;;6249076;22;20447;-78
2023/03/01 10:12:40;;;;;;;23.38;15.40;;;6.50;99.90;;;;;;6249032;22;20011;-79
2023/03/01 10:15:05;;;;;;;;;;;6.60;99.90;;;;;;6249696;22;20343;-79
2023/03/01 10:17:44;;;;;;;26.92;15.90;;;6.60;99.90;;;;;;6252953;22;20323;-78
2023/03/01 10:20:23;;;;;;;24.75;15.93;;;6.70;99.90;;;;;;6250512;22;20019;-79
2023/03/01 10:22:52;;;;;;;23.80;15.25;;;6.70;99.90;;;;;;6248892;22;20106;-79
2023/03/01 10:25:47;;;;;;;25.33;16.27;;;6.80;99.90;;;;;;6249190;22;20035;-79
2023/03/01 10:28:16;;;;;;;23.25;15.98;;;6.80;99.90;;;;;;6253282;22;20024;-79
2023/03/01 10:30:43;;;;;;;24.85;16.15;;;6.80;99.90;;;;;;6278351;22;20019;-79
2023/03/01 10:33:30;;;;;;;23.80;14.63;;;6.90;99.90;;;;;;6250971;22;20016;-79
2023/03/01 10:35:56;;;;;;;22.17;14.50;;;6.90;99.90;;;;;;6250915;22;20443;-80
2023/03/01 10:38:22;;;;;;;23.23;14.40;;;6.90;99.90;;;;;;6250520;22;20050;-80
2023/03/01 10:41:06;;;;;;;22.50;14.60;;;7.00;99.90;;;;;;6250925;22;20019;-80
2023/03/01 10:43:45;;;;;;;21.50;15.43;;;7.20;99.90;;;;;;6251041;22;20023;-80
2023/03/01 10:46:30;;;;;;;22.80;14.93;;;7.10;99.90;;;;;;6250844;22;20014;-80
2023/03/01 10:49:19;;;;;;;20.38;13.88;;;7.40;99.90;;;;;;6250842;22;20051;-80
2023/03/01 10:51:47;;;;;;;24.45;14.48;;;7.50;99.90;;;;;;6252462;22;20073;-80
2023/03/01 10:54:21;;;;;;;21.00;13.98;;;7.70;99.90;;;;;;6252550;22;20011;-79
2023/03/01 10:56:50;;;;;;;18.42;13.23;;;7.60;99.90;;;;;;6250814;22;20023;-80
2023/03/01 10:59:31;;;;;;;17.85;12.23;;;7.60;99.90;;;;;;6250694;22;20019;-80
2023/03/01 11:02:17;;;;;;;20.05;12.57;;;7.70;99.90;;;;;;6251004;22;20024;-80
2023/03/01 11:05:13;;;;;;;19.88;13.68;;;7.90;99.90;;;;;;6250437;22;20016;-80
2023/03/01 11:08:01;;;;;;;20.08;12.80;;;7.90;99.90;;;;;;6250717;22;20023;-80
2023/03/01 11:10:35;;;;;;;18.98;12.25;;;8.10;99.90;;;;;;6277790;22;20520;-80
2023/03/01 11:13:18;;;;;;;19.10;12.95;;;8.10;99.90;;;;;;6277911;22;20069;-80
2023/03/01 11:15:59;;;;;;;20.17;13.30;;;8.10;99.90;;;;;;6278103;22;20039;-80
2023/03/01 11:18:31;;;;;;;19.52;13.70;;;8.00;99.90;;;;;;6277533;22;20051;-78
2023/03/01 11:21:00;;;;;;;22.13;13.05;;;8.30;99.90;;;;;;6250608;22;20043;-79
2023/03/01 11:23:27;;;;;;;20.65;13.90;;;8.20;99.90;;;;;;6250260;22;20344;-78
2023/03/01 11:26:02;;;;;;;20.63;13.70;;;8.30;99.90;;;;;;6250273;22;20011;-79
2023/03/01 11:28:29;;;;;;;23.75;14.68;;;8.40;99.90;;;;;;6277454;22;20023;-79
2023/03/01 11:31:15;;;;;;;23.63;15.10;;;8.50;99.90;;;;;;6250411;22;20094;-79
2023/03/01 11:33:52;;;;;;;18.17;12.93;;;8.30;99.90;;;;;;6277496;22;20024;-79
2023/03/01 11:36:32;;;;;;;21.35;13.43;;;8.20;99.90;;;;;;6250312;22;20016;-77
2023/03/01 11:39:05;;;;;;;19.23;13.77;;;8.10;99.90;;;;;;6249796;22;20034;-77
2023/03/01 11:41:34;;;;;;;20.10;13.63;;;8.20;99.90;;;;;;6277711;22;20046;-78
2023/03/01 11:44:28;;;;;;;20.10;13.98;;;8.10;99.90;;;;;;6277455;22;20022;-77
2023/03/01 11:47:02;;;;;;;16.92;12.00;;;8.20;99.90;;;;;;6238576;22;20096;-76
2023/03/01 11:49:47;;;;;;;18.65;12.85;;;8.00;99.90;;;;;;6250222;22;20073;-77
2023/03/01 11:52:19;;;;;;;20.30;12.93;;;7.80;99.90;;;;;;6250249;22;20113;-77
2023/03/01 11:54:57;;;;;;;15.98;10.13;;;7.90;99.90;;;;;;6250251;22;20060;-77
2023/03/01 11:57:57;;;;;;;17.20;11.52;;;8.00;99.90;;;;;;6250123;22;20050;-77
2023/03/01 12:00:36;;;;;;;20.00;12.30;;;8.10;99.90;;;;;;6250117;22;20023;-77
2023/03/01 12:03:43;;;;;;;20.48;11.82;;;8.30;99.90;;;;;;6250528;22;20086;-77
2023/03/01 12:06:16;;;;;;;18.02;11.90;;;8.30;99.90;;;;;;6243760;22;20020;-77
2023/03/01 12:08:46;;;;;;;20.13;13.32;;;8.20;99.90;;;;;;6250098;22;20016;-75
2023/03/01 12:11:33;;;;;;;17.75;11.30;;;8.00;99.90;;;;;;6274956;22;20012;-85
2023/03/01 12:14:11;;;;;;;16.85;10.00;;;8.10;99.90;;;;;;6249327;22;20019;-83
2023/03/01 12:17:04;;;;;;;16.15;10.75;;;8.10;99.90;;;;;;6249666;22;20055;-83
2023/03/01 12:19:45;;;;;;;15.50;10.20;;;7.90;99.90;;;;;;6249304;22;20043;-82
2023/03/01 12:22:30;;;;;;;17.02;11.82;;;8.00;99.90;;;;;;6276640;22;20270;-82
2023/03/01 12:25:05;;;;;;;15.40;10.95;;;7.70;99.90;;;;;;6249084;22;20050;-82
2023/03/01 12:27:46;;;;;;;15.95;10.85;;;7.80;99.90;;;;;;6276721;22;20148;-83
2023/03/01 12:30:20;;;;;;;17.27;11.50;;;7.70;99.90;;;;;;6276588;22;20039;-89
2023/03/01 12:33:04;;;;;;;17.42;11.02;;;7.80;99.90;;;;;;6249520;22;20016;-82
2023/03/01 12:36:07;;;;;;;19.88;11.77;;;8.10;99.90;;;;;;6249127;22;20020;-82
2023/03/01 12:38:50;;;;;;;17.20;11.05;;;8.20;99.90;;;;;;6248984;22;20023;-82
2023/03/01 12:42:07;;;;;;;15.02;10.60;;;8.10;99.90;;;;;;6248689;22;20096;-82
2023/03/01 12:44:53;;;;;;;17.92;12.02;;;8.10;99.90;;;;;;6128322;23;20508;-84
2023/03/01 12:47:39;;;;;;;20.08;11.52;;;8.10;99.90;;;;;;6276698;22;20027;-84
2023/03/01 12:50:40;;;;;;;17.85;11.85;;;8.20;99.90;;;;;;6276090;22;20019;-84
2023/03/01 12:53:15;;;;;;;16.55;11.02;;;8.10;99.90;;;;;;6248875;22;20026;-84
2023/03/01 12:55:43;;;;;;;18.35;12.32;;;8.10;99.90;;;;;;6249110;22;20370;-83
2023/03/01 12:58:29;;;;;;;16.08;10.90;;;8.20;99.90;;;;;;6248853;22;20015;-82